Time;durP1;ratioP1;P1;durP2;ratioP2;P2;SDS_P1;SDS_P2;PMS_P1;PMS_P2;Temp;Humidity;BMP_temperature;BMP_pressure;BME280_temperature;BME280_humidity;BME280_pressure;Samples;Min_cycle;Max_cycle;Signal;HPM_P1;HPM_P2
2022/08/01 04:01:39;;;;;;;3.75;2.90;;;19.00;94.70;;;;;;5393520;23;20146;-75
2022/08/01 04:04:05;;;;;;;4.45;2.78;;;18.90;95.00;;;;;;4971213;28;20544;-75
2022/08/01 04:06:31;;;;;;;4.05;2.63;;;18.90;95.10;;;;;;4956177;28;20083;-74
2022/08/01 04:08:59;;;;;;;4.93;3.45;;;18.80;95.30;;;;;;4956895;28;20052;-77
2022/08/01 04:11:27;;;;;;;3.50;3.05;;;18.80;95.60;;;;;;4957191;28;20047;-77
2022/08/01 04:13:53;;;;;;;5.60;3.15;;;18.70;95.60;;;;;;4957485;28;20034;-75
2022/08/01 04:16:20;;;;;;;4.57;3.30;;;18.70;95.80;;;;;;4957628;28;20095;-75
2022/08/01 04:18:45;;;;;;;4.50;3.00;;;18.60;95.90;;;;;;4957750;28;20078;-75
2022/08/01 04:21:12;;;;;;;4.75;3.40;;;18.50;96.20;;;;;;4956661;28;20110;-75
2022/08/01 04:23:41;;;;;;;5.82;3.17;;;18.50;96.30;;;;;;4955896;28;20047;-78
2022/08/01 04:26:08;;;;;;;3.92;3.30;;;18.50;96.70;;;;;;4956290;28;20094;-75
2022/08/01 04:28:36;;;;;;;4.25;3.40;;;18.40;96.90;;;;;;4956180;28;20071;-75
2022/08/01 04:31:04;;;;;;;3.78;2.80;;;18.40;97.10;;;;;;4955934;28;20040;-75
2022/08/01 04:33:32;;;;;;;4.18;3.20;;;18.30;97.40;;;;;;4954845;28;20047;-75
2022/08/01 04:36:00;;;;;;;3.40;3.10;;;18.30;97.60;;;;;;4956199;28;20036;-75
2022/08/01 04:38:28;;;;;;;5.18;3.40;;;18.30;97.50;;;;;;4956425;28;20062;-75
2022/08/01 04:40:54;;;;;;;6.03;3.83;;;18.30;97.80;;;;;;4955683;28;20028;-74
2022/08/01 04:43:20;;;;;;;3.97;3.60;;;18.40;97.90;;;;;;4956295;28;20470;-74
2022/08/01 04:45:47;;;;;;;5.22;3.55;;;18.30;97.90;;;;;;4956312;28;20067;-74
2022/08/01 04:48:16;;;;;;;4.53;3.03;;;18.40;98.20;;;;;;4956051;28;20032;-74
2022/08/01 04:50:42;;;;;;;5.45;3.47;;;18.40;98.30;;;;;;4955816;28;20059;-74
2022/08/01 04:53:16;;;;;;;4.13;3.10;;;18.40;98.70;;;;;;4955820;28;20103;-74
2022/08/01 04:55:43;;;;;;;5.55;3.50;;;18.40;98.60;;;;;;4954478;28;20067;-74
2022/08/01 04:58:10;;;;;;;3.80;3.40;;;18.40;98.70;;;;;;4955917;28;20742;-74
2022/08/01 05:00:36;;;;;;;5.43;3.72;;;18.50;98.80;;;;;;4954163;28;20899;-74
2022/08/01 05:03:01;;;;;;;3.30;3.00;;;18.50;98.70;;;;;;4954451;28;20047;-74
2022/08/01 05:05:27;;;;;;;6.03;3.47;;;18.50;98.80;;;;;;4956011;28;20036;-74
2022/08/01 05:07:52;;;;;;;5.40;3.20;;;18.60;98.70;;;;;;4954538;28;20048;-74
2022/08/01 05:10:18;;;;;;;5.45;3.25;;;18.80;98.70;;;;;;4955260;28;20039;-74
2022/08/01 05:12:43;;;;;;;4.95;3.17;;;18.80;98.60;;;;;;4955934;28;20044;-74
2022/08/01 05:15:09;;;;;;;3.30;3.00;;;18.90;98.40;;;;;;4954400;28;20182;-76
2022/08/01 05:17:35;;;;;;;3.33;2.88;;;19.00;98.10;;;;;;4955951;28;20040;-73
2022/08/01 05:20:01;;;;;;;3.88;2.90;;;19.20;97.80;;;;;;4955013;28;20050;-73
2022/08/01 05:22:27;;;;;;;3.53;2.65;;;19.30;97.60;;;;;;4957507;28;20825;-73
2022/08/01 05:24:52;;;;;;;3.67;2.78;;;19.50;97.30;;;;;;4959093;28;20032;-73
2022/08/01 05:27:18;;;;;;;4.10;2.78;;;19.70;96.80;;;;;;4958887;28;20035;-73
2022/08/01 05:29:43;;;;;;;3.90;3.00;;;19.80;96.50;;;;;;4959030;28;20040;-73
2022/08/01 05:32:09;;;;;;;3.53;2.80;;;19.90;96.20;;;;;;4958368;28;20035;-73
2022/08/01 05:34:35;;;;;;;5.85;3.15;;;20.20;96.00;;;;;;4958989;28;20036;-73
2022/08/01 05:37:00;;;;;;;4.90;2.80;;;20.30;95.80;;;;;;4959140;28;20114;-73
2022/08/01 05:39:26;;;;;;;4.07;2.63;;;20.40;95.60;;;;;;4957524;28;20058;-74
2022/08/01 05:41:52;;;;;;;5.38;2.65;;;20.40;95.50;;;;;;4956326;28;20473;-74
2022/08/01 05:44:18;;;;;;;4.95;2.70;;;20.60;95.60;;;;;;4958501;28;20039;-74
2022/08/01 05:46:43;;;;;;;5.07;2.33;;;20.70;95.50;;;;;;4958931;28;20035;-74
2022/08/01 05:49:09;;;;;;;4.00;2.47;;;20.70;95.20;;;;;;4953582;28;20050;-74
2022/08/01 05:51:35;;;;;;;3.88;2.70;;;20.70;95.10;;;;;;4957195;28;20044;-74
2022/08/01 05:54:00;;;;;;;3.83;2.78;;;20.70;95.30;;;;;;4951379;28;20071;-76
2022/08/01 05:56:26;;;;;;;4.47;2.72;;;20.70;95.30;;;;;;4948212;28;20486;-76
2022/08/01 05:58:53;;;;;;;3.28;2.72;;;20.70;95.30;;;;;;4959597;28;20047;-76
2022/08/01 06:01:19;;;;;;;4.75;2.50;;;20.70;95.50;;;;;;4945763;28;20797;-76
2022/08/01 06:03:44;;;;;;;4.85;2.80;;;20.70;95.50;;;;;;4951702;28;20046;-77
2022/08/01 06:06:10;;;;;;;4.07;2.60;;;20.70;95.70;;;;;;4958720;28;20043;-75
2022/08/01 06:08:36;;;;;;;3.28;2.72;;;20.70;95.80;;;;;;4958950;28;20171;-75
2022/08/01 06:11:01;;;;;;;3.85;2.50;;;20.90;95.60;;;;;;4948448;28;20040;-76
2022/08/01 06:13:27;;;;;;;4.22;2.72;;;21.00;95.50;;;;;;4956681;28;20375;-76
2022/08/01 06:15:52;;;;;;;2.60;2.40;;;21.20;95.30;;;;;;4955347;28;20040;-75
2022/08/01 06:18:20;;;;;;;6.40;2.30;;;21.20;95.10;;;;;;4958461;28;20039;-76
2022/08/01 06:20:46;;;;;;;3.38;2.60;;;21.30;94.80;;;;;;4956456;28;20040;-76
2022/08/01 06:23:13;;;;;;;4.20;2.35;;;21.40;94.90;;;;;;4958450;28;20497;-76
2022/08/01 06:25:38;;;;;;;2.65;2.45;;;21.50;94.80;;;;;;4956908;28;20034;-77
2022/08/01 06:28:04;;;;;;;4.45;2.40;;;21.50;94.70;;;;;;4956736;28;20043;-76
2022/08/01 06:30:29;;;;;;;2.58;2.05;;;21.60;94.60;;;;;;4957846;28;20039;-76
2022/08/01 06:32:58;;;;;;;3.75;2.20;;;21.60;94.30;;;;;;4957718;28;20867;-76
2022/08/01 06:35:23;;;;;;;3.20;2.50;;;21.80;94.20;;;;;;4957995;28;21006;-77
2022/08/01 06:37:49;;;;;;;2.83;2.10;;;21.80;94.20;;;;;;4958312;28;20039;-77
2022/08/01 06:40:15;;;;;;;2.80;2.28;;;21.90;94.10;;;;;;4957524;28;20047;-75
2022/08/01 06:42:41;;;;;;;2.20;2.00;;;21.90;94.30;;;;;;4957907;28;20036;-75
2022/08/01 06:45:10;;;;;;;2.47;2.28;;;22.00;93.70;;;;;;4957317;28;20032;-75
2022/08/01 06:47:37;;;;;;;2.47;2.05;;;22.00;93.80;;;;;;4949761;28;20142;-76
2022/08/01 06:50:05;;;;;;;4.40;2.00;;;22.10;93.80;;;;;;4958152;28;20131;-75
2022/08/01 06:52:31;;;;;;;3.00;1.83;;;22.20;93.60;;;;;;4955735;28;20091;-75
2022/08/01 06:54:56;;;;;;;3.08;1.95;;;22.30;93.70;;;;;;4949176;28;20092;-79
2022/08/01 06:57:22;;;;;;;3.03;1.73;;;22.30;93.30;;;;;;4953749;28;20048;-77
2022/08/01 06:59:47;;;;;;;1.88;1.70;;;22.40;93.20;;;;;;4956101;28;20036;-77
2022/08/01 07:02:13;;;;;;;3.67;1.73;;;22.50;92.90;;;;;;4957174;28;20047;-76
2022/08/01 07:04:39;;;;;;;3.05;1.63;;;22.50;92.90;;;;;;4958052;28;20031;-75
2022/08/01 07:07:04;;;;;;;2.65;1.90;;;22.70;92.80;;;;;;4958164;28;20040;-75
2022/08/01 07:09:30;;;;;;;3.47;1.90;;;22.80;92.70;;;;;;4958664;28;20075;-75
2022/08/01 07:11:56;;;;;;;2.55;1.73;;;22.90;92.50;;;;;;4958251;28;20031;-76
2022/08/01 07:14:22;;;;;;;3.80;2.00;;;23.00;92.20;;;;;;4956538;28;20520;-75
2022/08/01 07:16:49;;;;;;;2.88;1.85;;;23.10;92.20;;;;;;4953340;28;20520;-77
2022/08/01 07:19:14;;;;;;;4.13;1.83;;;23.10;91.90;;;;;;4956022;28;20043;-76
2022/08/01 07:21:40;;;;;;;2.47;1.77;;;23.30;92.70;;;;;;4957338;28;20036;-76
2022/08/01 07:24:10;;;;;;;3.97;1.90;;;23.30;91.90;;;;;;4957070;28;20040;-77
2022/08/01 07:26:36;;;;;;;2.50;2.00;;;23.50;91.50;;;;;;4957733;28;20027;-76
2022/08/01 07:29:02;;;;;;;3.35;1.70;;;23.50;91.40;;;;;;4957766;28;20043;-76
2022/08/01 07:31:28;;;;;;;3.15;1.90;;;23.70;90.90;;;;;;4956220;28;20043;-76
2022/08/01 07:33:55;;;;;;;4.97;1.70;;;23.80;90.80;;;;;;4956646;28;20042;-76
2022/08/01 07:36:20;;;;;;;2.75;1.63;;;23.90;91.10;;;;;;4957617;28;20059;-74
2022/08/01 07:38:47;;;;;;;2.58;1.27;;;23.80;90.60;;;;;;4957790;28;20525;-78
2022/08/01 07:41:13;;;;;;;4.32;1.52;;;24.30;89.30;;;;;;4955834;28;20067;-79
2022/08/01 07:43:38;;;;;;;3.20;1.40;;;24.50;89.70;;;;;;4956969;28;20040;-76
2022/08/01 07:46:04;;;;;;;2.00;1.70;;;24.90;87.70;;;;;;4957032;28;20036;-77
2022/08/01 07:48:30;;;;;;;2.13;1.65;;;25.20;86.10;;;;;;4957847;28;20137;-81
2022/08/01 07:50:56;;;;;;;2.97;1.80;;;25.60;85.30;;;;;;4958034;28;20129;-77
2022/08/01 07:53:22;;;;;;;3.20;1.70;;;25.70;84.20;;;;;;4957395;28;20062;-77
2022/08/01 07:55:48;;;;;;;2.13;1.52;;;25.60;83.60;;;;;;4956881;28;20067;-77
2022/08/01 07:58:14;;;;;;;2.63;1.40;;;25.60;83.50;;;;;;4957512;28;20054;-76
2022/08/01 08:00:40;;;;;;;2.95;1.35;;;25.60;83.30;;;;;;4956833;28;20040;-76
2022/08/01 08:03:05;;;;;;;2.22;1.20;;;25.60;83.80;;;;;;4956311;28;20405;-76
2022/08/01 08:05:32;;;;;;;2.17;1.40;;;25.80;82.60;;;;;;4957266;28;20038;-80
2022/08/01 08:07:58;;;;;;;1.30;1.20;;;25.90;82.50;;;;;;4961491;28;20039;-79
2022/08/01 08:10:23;;;;;;;2.80;1.50;;;26.00;82.10;;;;;;4958067;28;20032;-76
2022/08/01 08:12:49;;;;;;;1.83;1.30;;;26.30;82.90;;;;;;4955988;28;20035;-78
2022/08/01 08:15:15;;;;;;;1.50;1.10;;;26.60;81.30;;;;;;4956957;28;20039;-76
2022/08/01 08:17:43;;;;;;;3.58;1.30;;;26.60;78.50;;;;;;4957001;28;20044;-77
2022/08/01 08:20:09;;;;;;;2.00;1.30;;;26.50;78.50;;;;;;4958193;28;20125;-76
2022/08/01 08:22:35;;;;;;;3.10;1.58;;;26.40;79.60;;;;;;4957766;28;20125;-80
2022/08/01 08:25:01;;;;;;;2.70;1.50;;;26.60;80.00;;;;;;4957311;28;20608;-77
2022/08/01 08:27:27;;;;;;;3.63;1.70;;;26.90;79.70;;;;;;4959156;28;20144;-76
2022/08/01 08:29:52;;;;;;;6.18;1.50;;;27.00;79.10;;;;;;4957603;28;20040;-77
2022/08/01 08:32:18;;;;;;;2.15;1.80;;;26.90;77.70;;;;;;4958535;28;20091;-76
2022/08/01 08:34:44;;;;;;;4.43;1.70;;;26.70;79.10;;;;;;4957738;28;20098;-75
2022/08/01 08:37:10;;;;;;;3.30;1.25;;;26.90;79.40;;;;;;4938622;28;20080;-76
2022/08/01 08:39:36;;;;;;;2.22;1.48;;;26.80;78.20;;;;;;4940534;28;20145;-76
2022/08/01 08:42:10;;;;;;;3.65;1.63;;;27.10;76.90;;;;;;4937331;29;20168;-76
2022/08/01 08:44:38;;;;;;;2.15;1.48;;;27.30;76.40;;;;;;4938459;28;20032;-76
2022/08/01 08:47:06;;;;;;;2.03;1.50;;;27.50;77.10;;;;;;4937533;28;20083;-76
2022/08/01 08:49:32;;;;;;;3.33;1.30;;;27.80;75.60;;;;;;4937694;28;20038;-77
2022/08/01 08:51:59;;;;;;;2.28;1.42;;;27.90;74.80;;;;;;4938188;28;20083;-76
2022/08/01 08:54:26;;;;;;;1.65;1.23;;;27.80;74.50;;;;;;4938419;28;20032;-76
2022/08/01 08:56:54;;;;;;;5.75;1.95;;;27.70;75.50;;;;;;4938423;28;20036;-76
2022/08/01 08:59:40;;;;;;;5.03;1.42;;;27.80;74.80;;;;;;4937194;29;20036;-76
2022/08/01 09:02:09;;;;;;;3.78;1.45;;;28.00;74.40;;;;;;4939730;28;20040;-76
2022/08/01 09:04:36;;;;;;;2.67;1.30;;;27.90;73.40;;;;;;4953992;28;20139;-75
2022/08/01 09:07:04;;;;;;;1.73;1.27;;;28.10;73.00;;;;;;4954606;28;20032;-77
2022/08/01 09:09:30;;;;;;;1.83;1.30;;;28.10;73.90;;;;;;4954492;28;20044;-76
2022/08/01 09:11:56;;;;;;;3.97;1.40;;;28.00;73.90;;;;;;4955966;28;20386;-76
2022/08/01 09:14:40;;;;;;;2.65;1.40;;;28.30;73.00;;;;;;4955241;28;20050;-76
2022/08/01 09:17:10;;;;;;;1.63;1.30;;;28.50;72.80;;;;;;4951545;28;20043;-75
2022/08/01 09:19:42;;;;;;;4.35;1.58;;;27.90;73.10;;;;;;4955681;28;20107;-77
2022/08/01 09:22:10;;;;;;;1.85;1.30;;;27.70;75.00;;;;;;4955890;28;20076;-76
2022/08/01 09:24:37;;;;;;;3.42;1.52;;;27.60;73.80;;;;;;4955508;28;20067;-78
2022/08/01 09:27:17;;;;;;;4.25;1.23;;;27.60;74.20;;;;;;4955173;28;20035;-76
2022/08/01 09:29:44;;;;;;;3.83;1.55;;;27.60;75.60;;;;;;4955999;28;20044;-76
2022/08/01 09:32:10;;;;;;;4.72;1.60;;;27.20;75.00;;;;;;4955340;28;20438;-76
2022/08/01 09:34:35;;;;;;;1.92;1.60;;;27.50;74.80;;;;;;4955613;28;20046;-76
2022/08/01 09:37:02;;;;;;;2.28;1.50;;;28.00;76.00;;;;;;4955718;28;20079;-76
2022/08/01 09:39:36;;;;;;;2.08;1.50;;;28.00;73.30;;;;;;4954476;28;20125;-76
2022/08/01 09:42:20;;;;;;;3.15;1.63;;;28.00;73.40;;;;;;4938721;28;20016;-77
2022/08/01 09:44:45;;;;;;;1.75;1.40;;;27.90;73.10;;;;;;4936298;28;20036;-76
2022/08/01 09:47:12;;;;;;;3.20;1.48;;;28.10;73.40;;;;;;4954302;28;20040;-76
2022/08/01 09:49:40;;;;;;;5.35;1.60;;;28.10;74.00;;;;;;4955622;28;20054;-76
2022/08/01 09:52:16;;;;;;;1.50;1.40;;;28.10;73.30;;;;;;4952310;28;20035;-76
2022/08/01 09:54:50;;;;;;;3.80;1.48;;;28.70;72.70;;;;;;4955322;28;20532;-76
2022/08/01 09:57:18;;;;;;;2.25;1.50;;;28.60;72.50;;;;;;4954910;28;20040;-76
2022/08/01 09:59:46;;;;;;;4.32;1.70;;;29.10;71.70;;;;;;4955598;28;20098;-76
2022/08/01 10:02:15;;;;;;;4.78;1.52;;;29.20;70.60;;;;;;4954869;28;20036;-76
2022/08/01 10:04:51;;;;;;;3.88;1.42;;;29.90;70.10;;;;;;4954964;28;20075;-76
2022/08/01 10:07:17;;;;;;;2.20;1.40;;;30.40;68.50;;;;;;4955557;28;20043;-76
2022/08/01 10:09:44;;;;;;;3.72;1.50;;;30.70;67.70;;;;;;4958812;28;20574;-76
2022/08/01 10:12:12;;;;;;;2.80;1.33;;;30.40;67.20;;;;;;4958355;28;20027;-76
2022/08/01 10:14:39;;;;;;;2.25;1.35;;;30.10;66.80;;;;;;4957825;28;20068;-76
2022/08/01 10:17:09;;;;;;;1.67;1.40;;;29.60;68.40;;;;;;4957292;28;20494;-76
2022/08/01 10:19:36;;;;;;;1.52;1.35;;;29.40;69.50;;;;;;4957016;28;20425;-76
2022/08/01 10:22:07;;;;;;;2.55;1.40;;;29.20;69.40;;;;;;4956764;28;20038;-76
2022/08/01 10:24:39;;;;;;;2.28;1.55;;;29.10;69.60;;;;;;4958170;28;20076;-72
2022/08/01 10:27:08;;;;;;;3.08;1.42;;;29.30;69.60;;;;;;4958691;28;20044;-75
2022/08/01 10:29:41;;;;;;;3.10;1.40;;;29.20;69.80;;;;;;4958523;28;20040;-75
2022/08/01 10:32:09;;;;;;;4.18;1.50;;;29.30;69.90;;;;;;4957676;28;20090;-76
2022/08/01 10:34:36;;;;;;;1.73;1.45;;;29.60;68.60;;;;;;4938917;28;20514;-77
2022/08/01 10:37:03;;;;;;;4.43;1.27;;;29.80;68.10;;;;;;4957935;28;20477;-75
2022/08/01 10:39:30;;;;;;;3.00;1.10;;;30.20;67.10;;;;;;4956874;28;20039;-75
2022/08/01 10:41:56;;;;;;;1.48;1.25;;;30.30;66.60;;;;;;4958117;28;21000;-75
2022/08/01 10:44:25;;;;;;;2.63;1.40;;;30.30;67.30;;;;;;4956482;28;20039;-74
2022/08/01 10:47:12;;;;;;;2.13;1.13;;;29.90;68.10;;;;;;4957880;28;20122;-79
2022/08/01 10:50:15;;;;;;;2.97;1.40;;;29.80;67.70;;;;;;4950635;28;20044;-75
2022/08/01 10:52:41;;;;;;;2.72;1.25;;;29.30;68.30;;;;;;4957845;28;20031;-74
2022/08/01 10:55:11;;;;;;;1.77;1.20;;;29.20;68.50;;;;;;4957405;28;20043;-74
2022/08/01 10:57:49;;;;;;;2.65;1.27;;;29.30;68.70;;;;;;4957600;28;20035;-74
2022/08/01 11:00:21;;;;;;;2.05;1.20;;;29.40;68.00;;;;;;4956048;28;20094;-78
2022/08/01 11:03:01;;;;;;;1.70;1.20;;;29.50;68.40;;;;;;4958527;28;20098;-76
2022/08/01 11:05:30;;;;;;;2.67;1.20;;;29.60;67.20;;;;;;4957232;28;20043;-75
2022/08/01 11:07:57;;;;;;;2.75;1.30;;;29.30;67.30;;;;;;4956100;28;20066;-75
2022/08/01 11:10:39;;;;;;;1.65;1.48;;;29.10;67.50;;;;;;4957686;28;20495;-74
2022/08/01 11:13:08;;;;;;;2.75;1.27;;;28.90;67.60;;;;;;4957406;28;20040;-75
2022/08/01 11:15:34;;;;;;;2.35;1.23;;;28.70;69.20;;;;;;4953755;28;20064;-74
2022/08/01 11:18:03;;;;;;;1.73;1.20;;;28.70;68.80;;;;;;4945639;28;20498;-75
2022/08/01 11:20:35;;;;;;;2.90;1.10;;;28.90;68.40;;;;;;4957379;28;20086;-74
2022/08/01 11:23:01;;;;;;;1.73;1.23;;;28.80;68.40;;;;;;4957510;28;20043;-74
2022/08/01 11:25:35;;;;;;;1.60;1.05;;;28.80;68.50;;;;;;4952236;28;20036;-74
2022/08/01 11:28:13;;;;;;;1.95;1.38;;;28.90;68.60;;;;;;4955964;28;20087;-74
2022/08/01 11:30:40;;;;;;;1.48;1.10;;;29.10;71.00;;;;;;4955583;28;20035;-74
2022/08/01 11:33:06;;;;;;;2.65;1.00;;;29.10;68.10;;;;;;4956619;28;20074;-74
2022/08/01 11:35:34;;;;;;;2.40;1.10;;;29.10;67.50;;;;;;4957167;28;20507;-74
2022/08/01 11:38:29;;;;;;;2.13;1.00;;;29.40;67.90;;;;;;4954855;28;20413;-73
2022/08/01 11:41:11;;;;;;;3.53;1.13;;;30.10;65.60;;;;;;4950026;28;20043;-74
2022/08/01 11:43:55;;;;;;;1.00;0.90;;;31.10;64.10;;;;;;4952262;28;20040;-74
2022/08/01 11:46:47;;;;;;;1.27;1.00;;;32.40;61.30;;;;;;4949337;28;20036;-74
2022/08/01 11:49:32;;;;;;;1.10;1.00;;;32.60;59.50;;;;;;4947534;28;20051;-73
2022/08/01 11:52:00;;;;;;;1.75;0.80;;;32.10;60.20;;;;;;4952150;28;20031;-74
2022/08/01 11:54:31;;;;;;;2.47;1.10;;;32.10;60.50;;;;;;4955294;28;20142;-74
2022/08/01 11:56:59;;;;;;;1.42;1.00;;;32.10;60.50;;;;;;4957079;28;20036;-74
2022/08/01 11:59:24;;;;;;;2.22;1.10;;;31.90;61.30;;;;;;4952985;28;20044;-74
2022/08/01 12:01:50;;;;;;;2.58;1.20;;;31.80;59.60;;;;;;4941885;28;20052;-73
2022/08/01 12:04:16;;;;;;;2.00;1.08;;;31.30;60.60;;;;;;4950001;28;20423;-74
2022/08/01 12:06:41;;;;;;;2.40;0.93;;;30.60;61.20;;;;;;4947976;28;20032;-74
2022/08/01 12:09:21;;;;;;;1.17;1.00;;;30.50;63.40;;;;;;4950806;28;20131;-73
2022/08/01 12:11:47;;;;;;;3.63;1.20;;;31.00;62.10;;;;;;4948912;28;20033;-73
2022/08/01 12:14:20;;;;;;;1.45;0.90;;;31.70;59.70;;;;;;4948888;28;20036;-73
2022/08/01 12:16:51;;;;;;;4.03;1.20;;;31.70;59.20;;;;;;4947426;28;20038;-74
2022/08/01 12:19:22;;;;;;;2.22;1.27;;;31.90;59.00;;;;;;4945563;28;20403;-74
2022/08/01 12:22:12;;;;;;;2.33;1.20;;;31.90;60.00;;;;;;4948537;28;20058;-74
2022/08/01 12:24:39;;;;;;;1.42;1.17;;;32.20;58.30;;;;;;4943222;28;20043;-74
2022/08/01 12:27:06;;;;;;;1.73;1.20;;;31.90;58.60;;;;;;4946694;28;20091;-74
2022/08/01 12:29:43;;;;;;;1.67;0.80;;;32.30;58.50;;;;;;4954561;28;20051;-73
2022/08/01 12:32:24;;;;;;;1.30;1.17;;;32.60;56.60;;;;;;4947671;28;20032;-73
2022/08/01 12:34:51;;;;;;;1.42;1.17;;;32.10;56.70;;;;;;4948619;28;20050;-74
2022/08/01 12:37:18;;;;;;;2.22;1.10;;;31.40;57.40;;;;;;4950725;28;20052;-74
2022/08/01 12:39:45;;;;;;;1.17;1.00;;;30.90;59.00;;;;;;4947961;28;20040;-74
2022/08/01 12:42:11;;;;;;;2.55;1.40;;;30.80;59.70;;;;;;4947211;28;20151;-74
2022/08/01 12:44:38;;;;;;;2.22;1.10;;;30.70;60.60;;;;;;4944292;28;20119;-74
2022/08/01 12:47:06;;;;;;;3.00;1.10;;;30.40;61.10;;;;;;4947061;28;20044;-74
2022/08/01 12:49:34;;;;;;;3.20;1.20;;;30.50;59.80;;;;;;4947252;28;20048;-74
2022/08/01 12:52:01;;;;;;;3.33;1.13;;;30.60;59.60;;;;;;4945130;28;20032;-73
2022/08/01 12:54:27;;;;;;;1.27;1.15;;;31.00;60.20;;;;;;4944902;28;20039;-74
2022/08/01 12:56:53;;;;;;;2.28;1.10;;;31.70;60.70;;;;;;4939216;28;20390;-74
2022/08/01 12:59:27;;;;;;;1.25;1.15;;;31.90;58.20;;;;;;4946398;28;20475;-74
2022/08/01 13:01:55;;;;;;;1.13;1.02;;;31.80;58.20;;;;;;4948449;28;20039;-74
2022/08/01 13:04:22;;;;;;;2.85;1.10;;;31.70;58.70;;;;;;4952454;28;20055;-74
2022/08/01 13:06:52;;;;;;;2.92;1.20;;;31.50;59.20;;;;;;4942759;28;20040;-75
2022/08/01 13:09:18;;;;;;;3.15;0.98;;;31.50;59.60;;;;;;4950699;28;20485;-76
2022/08/01 13:11:45;;;;;;;1.75;1.20;;;31.90;58.10;;;;;;4944648;28;20036;-75
2022/08/01 13:14:27;;;;;;;2.33;1.30;;;32.60;59.00;;;;;;4951245;28;20036;-75
2022/08/01 13:16:52;;;;;;;3.03;1.23;;;33.10;57.90;;;;;;4941490;28;20089;-75
2022/08/01 13:19:18;;;;;;;2.85;1.45;;;33.10;57.50;;;;;;4955759;28;20527;-76
2022/08/01 13:21:54;;;;;;;1.52;1.17;;;34.20;57.40;;;;;;4951608;28;20031;-75
2022/08/01 13:24:28;;;;;;;2.75;1.20;;;34.10;55.50;;;;;;4952276;28;20043;-75
2022/08/01 13:27:00;;;;;;;1.73;1.00;;;34.00;55.00;;;;;;4939295;28;20172;-75
2022/08/01 13:29:45;;;;;;;2.70;1.20;;;34.10;54.60;;;;;;4946739;28;20512;-76
2022/08/01 13:32:14;;;;;;;1.50;1.15;;;34.80;53.70;;;;;;4951093;28;20044;-75
2022/08/01 13:34:40;;;;;;;1.30;1.20;;;34.90;53.00;;;;;;4957411;28;20032;-75
2022/08/01 13:37:05;;;;;;;1.55;1.30;;;34.40;52.90;;;;;;4954197;28;20094;-75
2022/08/01 13:39:40;;;;;;;1.25;1.15;;;34.50;53.70;;;;;;4956391;28;20123;-75
2022/08/01 13:42:06;;;;;;;1.65;1.13;;;34.40;54.30;;;;;;4955978;28;20053;-75
2022/08/01 13:44:31;;;;;;;2.85;1.08;;;34.60;53.50;;;;;;4959796;28;20047;-75
2022/08/01 13:46:57;;;;;;;5.18;1.50;;;34.60;53.50;;;;;;4958491;28;20071;-75
2022/08/01 13:49:26;;;;;;;4.40;1.30;;;36.30;52.20;;;;;;4959398;28;20043;-76
2022/08/01 13:51:51;;;;;;;1.95;1.20;;;36.50;50.30;;;;;;4959750;28;20035;-75
2022/08/01 13:54:17;;;;;;;1.40;1.30;;;34.90;51.20;;;;;;4957680;28;20126;-75
2022/08/01 13:56:43;;;;;;;3.35;1.52;;;33.80;54.00;;;;;;4959332;28;20038;-75
2022/08/01 13:59:12;;;;;;;1.80;1.50;;;33.00;54.40;;;;;;4961181;28;20044;-74
2022/08/01 14:01:38;;;;;;;1.52;1.13;;;32.60;55.80;;;;;;4958473;28;20036;-74
2022/08/01 14:04:04;;;;;;;3.78;1.33;;;32.30;56.90;;;;;;4958254;28;20090;-74
2022/08/01 14:06:30;;;;;;;2.63;1.20;;;32.00;57.10;;;;;;4958266;28;20490;-74
2022/08/01 14:08:56;;;;;;;1.35;1.10;;;31.90;58.00;;;;;;4958209;28;20053;-74
2022/08/01 14:11:21;;;;;;;1.35;1.25;;;33.00;57.80;;;;;;4958453;28;20367;-74
2022/08/01 14:13:47;;;;;;;2.97;1.08;;;34.00;54.90;;;;;;4958910;28;20046;-74
2022/08/01 14:16:13;;;;;;;2.78;1.30;;;33.70;53.90;;;;;;4958013;28;20042;-74
2022/08/01 14:18:38;;;;;;;1.85;1.10;;;33.00;56.00;;;;;;4958558;28;20036;-74
2022/08/01 14:21:04;;;;;;;3.08;1.30;;;34.20;56.40;;;;;;4957995;28;20027;-75
2022/08/01 14:23:29;;;;;;;1.88;1.17;;;34.00;54.30;;;;;;4958057;28;20131;-75
2022/08/01 14:25:55;;;;;;;2.38;1.20;;;32.90;55.40;;;;;;4957800;28;20043;-74
2022/08/01 14:28:21;;;;;;;2.03;1.60;;;32.50;55.60;;;;;;4957878;28;20052;-73
2022/08/01 14:30:46;;;;;;;1.55;1.08;;;32.60;56.70;;;;;;4958220;28;20047;-73
2022/08/01 14:33:13;;;;;;;2.22;1.00;;;33.90;53.70;;;;;;4956423;28;20091;-71
2022/08/01 14:35:39;;;;;;;0.93;0.93;;;35.80;51.30;;;;;;4956761;28;20142;-73
2022/08/01 14:38:04;;;;;;;5.13;1.38;;;35.70;50.50;;;;;;4957679;28;20111;-76
2022/08/01 14:40:30;;;;;;;3.83;1.23;;;35.00;51.20;;;;;;4958187;28;20474;-74
2022/08/01 14:42:55;;;;;;;3.65;1.30;;;34.10;53.10;;;;;;4958230;28;20142;-78
2022/08/01 14:45:21;;;;;;;2.83;1.15;;;33.00;55.20;;;;;;4957874;28;20062;-72
2022/08/01 14:47:47;;;;;;;2.78;1.13;;;32.70;55.50;;;;;;4956786;28;20051;-73
2022/08/01 14:50:15;;;;;;;2.45;1.00;;;32.40;56.00;;;;;;4956593;28;20046;-73
2022/08/01 14:52:42;;;;;;;1.30;0.90;;;31.90;56.80;;;;;;4956207;28;20035;-74
2022/08/01 14:55:10;;;;;;;1.88;1.45;;;31.40;56.90;;;;;;4955924;28;20032;-74
2022/08/01 14:57:37;;;;;;;1.73;1.20;;;31.00;57.60;;;;;;4957733;28;20052;-74
2022/08/01 15:00:05;;;;;;;3.17;1.20;;;31.10;58.80;;;;;;4957818;28;20494;-75
2022/08/01 15:02:31;;;;;;;1.48;1.15;;;31.10;58.30;;;;;;4957341;28;20046;-74
2022/08/01 15:04:56;;;;;;;2.15;1.10;;;31.60;58.50;;;;;;4957498;28;20024;-75
2022/08/01 15:07:22;;;;;;;2.83;1.15;;;34.10;56.00;;;;;;4957949;28;20048;-75
2022/08/01 15:09:47;;;;;;;1.70;1.10;;;36.00;51.10;;;;;;4957721;28;20072;-75
2022/08/01 15:12:13;;;;;;;3.50;1.10;;;36.60;50.00;;;;;;4957807;28;20401;-74
2022/08/01 15:14:48;;;;;;;2.33;1.20;;;36.50;49.30;;;;;;4957198;28;20032;-75
2022/08/01 15:17:24;;;;;;;2.22;1.10;;;35.50;49.80;;;;;;4957570;28;20100;-73
2022/08/01 15:19:52;;;;;;;3.90;1.13;;;34.10;52.50;;;;;;4958026;28;20043;-78
2022/08/01 15:22:19;;;;;;;3.00;1.33;;;33.60;53.40;;;;;;4957550;28;20114;-73
2022/08/01 15:24:44;;;;;;;3.63;1.10;;;33.00;54.70;;;;;;4956104;28;20036;-73
2022/08/01 15:27:10;;;;;;;2.90;0.93;;;32.50;56.50;;;;;;4956008;28;20044;-72
2022/08/01 15:29:37;;;;;;;1.98;1.05;;;32.10;56.80;;;;;;4957626;28;20494;-72
2022/08/01 15:32:03;;;;;;;2.42;1.10;;;31.60;58.50;;;;;;4957342;28;20102;-73
2022/08/01 15:34:29;;;;;;;1.80;1.20;;;31.20;58.10;;;;;;4957152;28;20039;-73
2022/08/01 15:36:55;;;;;;;4.30;1.27;;;31.50;58.10;;;;;;4957138;28;20047;-73
2022/08/01 15:39:21;;;;;;;4.32;1.00;;;32.30;57.10;;;;;;4942041;28;20050;-73
2022/08/01 15:41:46;;;;;;;2.10;1.00;;;32.90;55.70;;;;;;4954621;28;20114;-75
2022/08/01 15:44:12;;;;;;;2.08;1.23;;;33.00;55.30;;;;;;4956916;28;20383;-73
2022/08/01 15:46:37;;;;;;;2.55;1.17;;;33.60;55.20;;;;;;4956859;28;20039;-74
2022/08/01 15:49:04;;;;;;;1.20;1.10;;;34.20;54.00;;;;;;4956893;28;20040;-74
2022/08/01 15:51:31;;;;;;;1.42;1.23;;;34.30;52.90;;;;;;4956930;28;20111;-73
2022/08/01 15:53:57;;;;;;;2.35;0.98;;;33.90;52.80;;;;;;4957136;28;20035;-73
2022/08/01 15:56:23;;;;;;;3.33;1.08;;;33.80;52.50;;;;;;4956107;28;20044;-74
2022/08/01 15:58:49;;;;;;;3.20;1.10;;;33.30;52.30;;;;;;4949380;28;20107;-73
2022/08/01 16:01:15;;;;;;;2.00;1.10;;;33.00;53.70;;;;;;4938385;29;20507;-76
2022/08/01 16:03:41;;;;;;;2.72;1.15;;;32.60;53.60;;;;;;4938211;28;20087;-72
2022/08/01 16:06:07;;;;;;;3.28;1.20;;;32.40;54.90;;;;;;4951275;28;20119;-72
2022/08/01 16:08:33;;;;;;;3.28;1.23;;;32.80;55.10;;;;;;4956599;28;20099;-73
2022/08/01 16:10:58;;;;;;;2.00;1.00;;;33.10;53.50;;;;;;4956886;28;20043;-73
2022/08/01 16:13:24;;;;;;;2.50;1.10;;;33.30;52.50;;;;;;4956911;28;20038;-73
2022/08/01 16:15:49;;;;;;;2.63;1.00;;;33.60;52.60;;;;;;4956555;28;20406;-73
2022/08/01 16:18:15;;;;;;;4.90;1.42;;;33.20;52.40;;;;;;4956273;28;20054;-73
2022/08/01 16:20:41;;;;;;;3.70;1.02;;;32.50;54.30;;;;;;4956865;28;20032;-72
2022/08/01 16:23:07;;;;;;;3.10;0.90;;;32.40;54.10;;;;;;4956591;28;20036;-72
2022/08/01 16:25:33;;;;;;;10.32;1.30;;;32.80;53.70;;;;;;4956524;28;20036;-77
2022/08/01 16:27:58;;;;;;;3.30;1.00;;;32.90;53.60;;;;;;4951581;28;20079;-77
2022/08/01 16:30:24;;;;;;;3.13;1.45;;;32.60;53.00;;;;;;4954107;28;20044;-76
2022/08/01 16:32:50;;;;;;;2.60;1.38;;;32.20;54.20;;;;;;4956591;28;20046;-81
2022/08/01 16:35:15;;;;;;;1.75;1.35;;;32.00;54.50;;;;;;4956907;28;20091;-74
2022/08/01 16:37:41;;;;;;;2.55;1.40;;;31.50;55.10;;;;;;4957070;28;20040;-74
2022/08/01 16:40:06;;;;;;;1.10;1.00;;;31.00;56.10;;;;;;4956606;28;20032;-73
2022/08/01 16:42:33;;;;;;;1.17;1.00;;;30.30;57.00;;;;;;4953114;28;20047;-76
2022/08/01 16:44:59;;;;;;;2.53;1.27;;;29.90;58.90;;;;;;4939134;28;20043;-75
2022/08/01 16:47:24;;;;;;;2.85;1.20;;;29.30;60.80;;;;;;4951302;28;20074;-73
2022/08/01 16:49:50;;;;;;;1.13;1.02;;;29.10;60.90;;;;;;4956453;28;20075;-73
2022/08/01 16:52:15;;;;;;;3.28;1.13;;;28.90;61.30;;;;;;4956643;28;20036;-73